Time;durP1;ratioP1;P1;durP2;ratioP2;P2;SDS_P1;SDS_P2;PMS_P1;PMS_P2;Temp;Humidity;BMP_temperature;BMP_pressure;BME280_temperature;BME280_humidity;BME280_pressure;Samples;Min_cycle;Max_cycle;Signal;HPM_P1;HPM_P2
2023/04/18 00:01:45;;;;;;;0.10;0.10;;;4.60;99.90;;;;;;5035786;28;20022;-74
2023/04/18 00:04:12;;;;;;;0.30;0.30;;;4.60;99.90;;;;;;5035493;28;20032;-74
2023/04/18 00:06:39;;;;;;;0.20;0.20;;;4.50;99.90;;;;;;5017902;28;20564;-74
2023/04/18 00:09:05;;;;;;;0.10;0.10;;;4.40;99.90;;;;;;5035956;28;20076;-74
2023/04/18 00:11:30;;;;;;;0.20;0.20;;;4.30;99.90;;;;;;5034886;28;20433;-74
2023/04/18 00:13:57;;;;;;;0.17;0.17;;;4.30;99.90;;;;;;5035497;28;20429;-74
2023/04/18 00:16:23;;;;;;;0.20;0.20;;;4.20;99.90;;;;;;5017768;28;20502;-74
2023/04/18 00:18:50;;;;;;;0.15;0.15;;;4.20;99.90;;;;;;5034947;28;20475;-74
2023/04/18 00:21:16;;;;;;;0.10;0.10;;;4.20;99.90;;;;;;5034918;28;20546;-74
2023/04/18 00:23:42;;;;;;;0.20;0.20;;;4.20;99.90;;;;;;5017864;28;20113;-74
2023/04/18 00:26:07;;;;;;;0.20;0.20;;;4.20;99.90;;;;;;5034359;28;20049;-74
2023/04/18 00:28:33;;;;;;;0.20;0.20;;;4.30;99.90;;;;;;5035059;28;20475;-74
2023/04/18 00:30:59;;;;;;;0.30;0.30;;;4.20;99.90;;;;;;5035108;28;20032;-74
2023/04/18 00:33:24;;;;;;;0.10;0.10;;;4.10;99.90;;;;;;5034723;28;20033;-74
2023/04/18 00:35:50;;;;;;;0.20;0.20;;;4.10;99.90;;;;;;5034961;28;20032;-73
2023/04/18 00:38:15;;;;;;;0.20;0.20;;;3.90;99.90;;;;;;5034713;28;20045;-74
2023/04/18 00:40:43;;;;;;;0.20;0.20;;;3.90;99.90;;;;;;5034999;28;20048;-74
2023/04/18 00:43:12;;;;;;;0.30;0.30;;;3.90;99.90;;;;;;5034869;28;20033;-74
2023/04/18 00:45:38;;;;;;;0.20;0.20;;;3.80;99.90;;;;;;5019813;23;20416;-74
2023/04/18 00:48:04;;;;;;;0.20;0.20;;;3.70;99.90;;;;;;4995179;28;20077;-74
2023/04/18 00:50:32;;;;;;;0.20;0.20;;;3.60;99.90;;;;;;4995539;28;20080;-74
2023/04/18 00:52:58;;;;;;;0.30;0.30;;;3.60;99.90;;;;;;4994905;28;20034;-74
2023/04/18 00:55:24;;;;;;;0.20;0.20;;;3.50;99.90;;;;;;4995164;28;20023;-74
2023/04/18 00:57:50;;;;;;;0.20;0.20;;;3.50;99.90;;;;;;4978095;28;20034;-74
2023/04/18 01:00:16;;;;;;;0.13;0.13;;;3.50;99.90;;;;;;4994999;28;20027;-73
2023/04/18 01:02:44;;;;;;;0.20;0.20;;;3.40;99.90;;;;;;4994807;28;20022;-73
2023/04/18 01:05:09;;;;;;;0.20;0.20;;;3.40;99.90;;;;;;4995065;28;20399;-73
2023/04/18 01:07:40;;;;;;;0.20;0.20;;;3.30;99.90;;;;;;4994903;28;20026;-73
2023/04/18 01:10:06;;;;;;;0.20;0.20;;;3.30;99.90;;;;;;4995233;28;20031;-73
2023/04/18 01:12:36;;;;;;;0.30;0.30;;;3.30;99.90;;;;;;4994769;28;20033;-73
2023/04/18 01:15:06;;;;;;;0.20;0.20;;;3.20;99.90;;;;;;4994360;28;20113;-73
2023/04/18 01:17:33;;;;;;;0.25;0.25;;;3.20;99.90;;;;;;4995173;28;20149;-73
2023/04/18 01:20:00;;;;;;;0.30;0.30;;;3.10;99.90;;;;;;4977376;28;20620;-73
2023/04/18 01:22:27;;;;;;;0.20;0.20;;;3.00;99.90;;;;;;4994551;28;20027;-73
2023/04/18 01:24:53;;;;;;;0.35;0.35;;;2.90;99.90;;;;;;4994063;28;20059;-73
2023/04/18 01:27:18;;;;;;;0.20;0.20;;;2.80;99.90;;;;;;4977242;28;20026;-73
2023/04/18 01:29:44;;;;;;;0.30;0.30;;;2.70;99.90;;;;;;4994514;28;20489;-73
2023/04/18 01:32:10;;;;;;;0.20;0.20;;;2.70;99.90;;;;;;4976353;28;20085;-73
2023/04/18 01:34:35;;;;;;;0.30;0.30;;;2.60;99.90;;;;;;4994068;28;20029;-73
2023/04/18 01:37:01;;;;;;;0.25;0.25;;;2.50;99.90;;;;;;4994406;28;20369;-73
2023/04/18 01:39:27;;;;;;;0.20;0.20;;;2.40;99.90;;;;;;4994152;28;20412;-73
2023/04/18 01:41:52;;;;;;;0.20;0.20;;;2.40;99.90;;;;;;4995094;28;20053;-74
2023/04/18 01:44:18;;;;;;;0.20;0.20;;;2.40;99.90;;;;;;4993518;28;20492;-73
2023/04/18 01:46:44;;;;;;;0.20;0.20;;;2.30;99.90;;;;;;4976157;28;20038;-73
2023/04/18 01:49:09;;;;;;;0.30;0.30;;;2.30;99.90;;;;;;4994025;28;20068;-73
2023/04/18 01:51:37;;;;;;;0.20;0.20;;;2.30;99.90;;;;;;4994420;28;20022;-73
2023/04/18 01:54:03;;;;;;;0.10;0.10;;;2.30;99.90;;;;;;4976629;28;20027;-73
2023/04/18 01:56:29;;;;;;;0.20;0.20;;;2.30;99.90;;;;;;4975904;28;20019;-73
2023/04/18 01:58:55;;;;;;;0.32;0.32;;;2.20;99.90;;;;;;4976673;28;20070;-73
2023/04/18 02:01:20;;;;;;;0.20;0.20;;;2.20;99.90;;;;;;4994322;28;20464;-73
2023/04/18 02:03:46;;;;;;;0.30;0.30;;;2.20;99.90;;;;;;4976519;28;20028;-73
2023/04/18 02:06:11;;;;;;;0.30;0.30;;;2.20;99.90;;;;;;4993758;28;20030;-73
2023/04/18 02:08:37;;;;;;;0.20;0.20;;;2.20;99.90;;;;;;4976561;28;20026;-73
2023/04/18 02:11:02;;;;;;;0.20;0.20;;;2.10;99.90;;;;;;4993966;28;20400;-73
2023/04/18 02:13:28;;;;;;;0.20;0.20;;;2.10;99.90;;;;;;4993808;28;20076;-73
2023/04/18 02:15:53;;;;;;;0.20;0.20;;;2.10;99.90;;;;;;4994170;28;20089;-73
2023/04/18 02:18:20;;;;;;;0.20;0.20;;;2.00;99.90;;;;;;4993471;28;20030;-73
2023/04/18 02:20:46;;;;;;;0.20;0.20;;;2.00;99.90;;;;;;4993779;28;20073;-73
2023/04/18 02:23:11;;;;;;;0.20;0.20;;;2.00;99.90;;;;;;4976607;28;20019;-73
2023/04/18 02:25:37;;;;;;;0.28;0.28;;;1.90;99.90;;;;;;4993548;28;20081;-73
2023/04/18 02:28:03;;;;;;;0.30;0.30;;;1.90;99.90;;;;;;4993694;28;20041;-73
2023/04/18 02:30:28;;;;;;;0.28;0.28;;;1.90;99.90;;;;;;4993624;28;20065;-73
2023/04/18 02:32:57;;;;;;;0.28;0.28;;;1.90;99.90;;;;;;4993540;28;20041;-73
2023/04/18 02:35:24;;;;;;;0.15;0.15;;;1.90;99.90;;;;;;4993549;28;20034;-73
2023/04/18 02:37:49;;;;;;;0.20;0.20;;;1.90;99.90;;;;;;4994223;28;20023;-73
2023/04/18 02:40:15;;;;;;;0.20;0.20;;;1.90;99.90;;;;;;4976686;28;20048;-73
2023/04/18 02:42:41;;;;;;;0.30;0.30;;;2.00;99.90;;;;;;4993657;28;20100;-73
2023/04/18 02:45:07;;;;;;;0.20;0.20;;;2.00;99.90;;;;;;4993401;28;20042;-73
2023/04/18 02:47:33;;;;;;;0.28;0.28;;;2.00;99.90;;;;;;4976200;28;20033;-73
2023/04/18 02:49:58;;;;;;;0.22;0.22;;;2.00;99.90;;;;;;4993590;28;20030;-73
2023/04/18 02:52:24;;;;;;;0.20;0.20;;;2.20;99.90;;;;;;4993448;28;20030;-73
2023/04/18 02:54:50;;;;;;;0.20;0.20;;;2.20;99.90;;;;;;4993516;28;20105;-73
2023/04/18 02:57:16;;;;;;;0.10;0.10;;;2.10;99.90;;;;;;4995147;28;20484;-73
2023/04/18 02:59:42;;;;;;;0.30;0.30;;;2.20;99.90;;;;;;4997181;28;20396;-73
2023/04/18 03:02:07;;;;;;;0.22;0.22;;;2.30;99.90;;;;;;4998034;28;20027;-73
2023/04/18 03:04:33;;;;;;;0.20;0.20;;;2.30;99.90;;;;;;4997304;28;20066;-73
2023/04/18 03:06:58;;;;;;;0.30;0.30;;;2.30;99.90;;;;;;4997367;28;20061;-73
2023/04/18 03:09:25;;;;;;;0.20;0.20;;;2.20;99.90;;;;;;4980093;28;20022;-73
2023/04/18 03:11:50;;;;;;;0.30;0.30;;;2.20;99.90;;;;;;4997510;28;20026;-73
2023/04/18 03:14:16;;;;;;;0.20;0.20;;;2.10;99.90;;;;;;4978756;28;20160;-73
2023/04/18 03:16:41;;;;;;;0.20;0.20;;;2.00;99.90;;;;;;4997204;28;20030;-73
2023/04/18 03:19:07;;;;;;;0.20;0.20;;;2.00;99.90;;;;;;4997709;28;20033;-73
2023/04/18 03:21:32;;;;;;;0.20;0.20;;;2.00;99.90;;;;;;4997076;28;20026;-73
2023/04/18 03:23:58;;;;;;;0.20;0.20;;;2.10;99.90;;;;;;4979707;28;20018;-73
2023/04/18 03:26:24;;;;;;;0.20;0.20;;;2.10;99.90;;;;;;4996697;28;20030;-73
2023/04/18 03:28:49;;;;;;;0.20;0.20;;;2.00;99.90;;;;;;4979459;28;20031;-73
2023/04/18 03:31:15;;;;;;;0.20;0.20;;;1.90;99.90;;;;;;4996886;28;20026;-73
2023/04/18 03:33:44;;;;;;;0.20;0.20;;;1.80;99.90;;;;;;4996118;28;20031;-73
2023/04/18 03:36:16;;;;;;;0.20;0.20;;;1.70;99.90;;;;;;4996771;28;20035;-73
2023/04/18 03:38:42;;;;;;;0.20;0.20;;;1.60;99.90;;;;;;4996716;28;20117;-74
2023/04/18 03:41:08;;;;;;;0.20;0.20;;;1.60;99.90;;;;;;4996854;28;20535;-73
2023/04/18 03:43:33;;;;;;;0.30;0.30;;;1.60;99.90;;;;;;4995681;28;20030;-73
2023/04/18 03:45:59;;;;;;;0.20;0.20;;;1.60;99.90;;;;;;4996331;28;20070;-73
2023/04/18 03:48:24;;;;;;;0.20;0.20;;;1.60;99.90;;;;;;4996497;28;20034;-73
2023/04/18 03:50:50;;;;;;;0.25;0.25;;;1.60;99.90;;;;;;4996498;28;20037;-73
2023/04/18 03:53:16;;;;;;;0.25;0.25;;;1.60;99.90;;;;;;4996571;28;20030;-73
2023/04/18 03:55:42;;;;;;;0.30;0.30;;;1.60;99.90;;;;;;4996399;28;20026;-73
2023/04/18 03:58:08;;;;;;;0.20;0.20;;;1.50;99.90;;;;;;4995748;28;20034;-73
2023/04/18 04:00:33;;;;;;;0.30;0.30;;;1.50;99.90;;;;;;4996313;28;20101;-73
2023/04/18 04:02:59;;;;;;;0.30;0.30;;;1.50;99.90;;;;;;4995326;28;20033;-73
2023/04/18 04:05:24;;;;;;;0.20;0.20;;;1.50;99.90;;;;;;4996290;28;20037;-73
2023/04/18 04:07:50;;;;;;;0.20;0.20;;;1.60;99.90;;;;;;4995981;28;20113;-73
2023/04/18 04:10:15;;;;;;;0.20;0.20;;;1.60;99.90;;;;;;4995132;28;20030;-73
2023/04/18 04:12:41;;;;;;;0.30;0.30;;;1.60;99.90;;;;;;4996099;28;20054;-73
2023/04/18 04:15:07;;;;;;;0.28;0.28;;;1.60;99.90;;;;;;4995929;28;20030;-73
2023/04/18 04:17:32;;;;;;;0.20;0.20;;;1.60;99.90;;;;;;4996185;28;20033;-73
2023/04/18 04:19:58;;;;;;;0.20;0.20;;;1.60;99.90;;;;;;4995510;28;20050;-73
2023/04/18 04:22:23;;;;;;;0.20;0.20;;;1.60;99.90;;;;;;4995938;28;20031;-73
2023/04/18 04:24:49;;;;;;;0.20;0.20;;;1.50;99.90;;;;;;4995592;28;20030;-73
2023/04/18 04:27:17;;;;;;;0.20;0.20;;;1.50;99.90;;;;;;4996308;28;20484;-73
2023/04/18 04:29:43;;;;;;;0.20;0.20;;;1.50;99.90;;;;;;4995520;28;20050;-73
2023/04/18 04:32:08;;;;;;;0.20;0.20;;;1.40;99.90;;;;;;4995460;28;20080;-73
2023/04/18 04:34:35;;;;;;;0.20;0.20;;;1.40;99.90;;;;;;4995495;28;20045;-73
2023/04/18 04:37:01;;;;;;;0.15;0.15;;;1.40;99.90;;;;;;4995382;28;20042;-73
2023/04/18 04:39:26;;;;;;;0.30;0.30;;;1.40;99.90;;;;;;4995873;28;20050;-73
2023/04/18 04:41:52;;;;;;;0.20;0.20;;;1.40;99.90;;;;;;4995130;28;20026;-73
2023/04/18 04:46:48;;;;;;;0.10;0.10;;;1.40;99.90;;;;;;5013461;28;20049;-72
2023/04/18 04:49:16;;;;;;;0.20;0.20;;;1.50;99.90;;;;;;5015063;28;20028;-73
2023/04/18 04:51:41;;;;;;;0.20;0.20;;;1.50;99.90;;;;;;5015135;28;20028;-73
2023/04/18 04:54:07;;;;;;;0.15;0.15;;;1.50;99.90;;;;;;5014632;28;20021;-72
2023/04/18 04:56:35;;;;;;;0.20;0.20;;;1.50;99.90;;;;;;5014719;28;20048;-73
2023/04/18 04:59:00;;;;;;;0.30;0.30;;;1.50;99.90;;;;;;5014460;28;20438;-73
2023/04/18 05:01:26;;;;;;;0.28;0.28;;;1.60;99.90;;;;;;5014460;28;20018;-73
2023/04/18 05:03:52;;;;;;;0.20;0.20;;;1.80;99.90;;;;;;4977805;28;20503;-73
2023/04/18 05:06:19;;;;;;;0.20;0.20;;;2.00;99.90;;;;;;4994536;28;20026;-73
2023/04/18 05:08:46;;;;;;;0.20;0.20;;;2.10;99.90;;;;;;4995872;28;20045;-73
2023/04/18 05:11:12;;;;;;;0.20;0.20;;;2.20;99.90;;;;;;4994860;28;20120;-73
2023/04/18 05:13:37;;;;;;;0.20;0.20;;;2.20;99.90;;;;;;4994567;28;20026;-73
2023/04/18 05:16:03;;;;;;;0.30;0.30;;;2.30;99.90;;;;;;4994748;28;20058;-73
2023/04/18 05:18:29;;;;;;;0.22;0.22;;;2.40;99.90;;;;;;5004747;28;20105;-73
2023/04/18 05:20:55;;;;;;;0.20;0.20;;;2.50;99.90;;;;;;5014797;28;20022;-74
2023/04/18 05:23:21;;;;;;;0.20;0.20;;;2.60;99.90;;;;;;5014527;28;20022;-73
2023/04/18 05:25:46;;;;;;;0.20;0.20;;;2.70;99.90;;;;;;5013487;28;20515;-73
2023/04/18 05:28:12;;;;;;;0.20;0.20;;;2.90;99.90;;;;;;5014227;28;20045;-73
2023/04/18 05:30:38;;;;;;;0.20;0.20;;;3.10;99.90;;;;;;5013930;28;20036;-73
2023/04/18 05:33:04;;;;;;;0.20;0.20;;;3.30;99.90;;;;;;5014201;28;20470;-73
2023/04/18 05:35:30;;;;;;;0.17;0.17;;;3.50;99.90;;;;;;5013978;28;20180;-73
2023/04/18 05:37:57;;;;;;;0.20;0.20;;;3.70;99.90;;;;;;5014096;28;20034;-73
2023/04/18 05:40:22;;;;;;;0.20;0.20;;;3.80;99.90;;;;;;5014123;28;20053;-73
2023/04/18 05:42:48;;;;;;;0.20;0.20;;;3.90;99.90;;;;;;5013770;28;20083;-73
2023/04/18 05:45:13;;;;;;;0.30;0.30;;;4.00;99.90;;;;;;5013564;28;20032;-73
2023/04/18 05:47:39;;;;;;;0.10;0.10;;;4.10;99.90;;;;;;5013839;28;20105;-73
2023/04/18 05:50:05;;;;;;;0.30;0.30;;;4.30;99.90;;;;;;5013786;28;20033;-73
2023/04/18 05:52:31;;;;;;;0.20;0.20;;;4.40;99.90;;;;;;5014113;28;20033;-73
2023/04/18 05:54:57;;;;;;;0.20;0.20;;;4.60;99.90;;;;;;4996490;28;20101;-73
2023/04/18 05:57:22;;;;;;;0.20;0.20;;;4.70;99.90;;;;;;5013603;28;20491;-73
2023/04/18 05:59:48;;;;;;;0.20;0.20;;;4.80;99.90;;;;;;5013483;28;20458;-73
2023/04/18 06:02:13;;;;;;;0.20;0.20;;;5.00;99.90;;;;;;5013702;28;20101;-73
2023/04/18 06:04:43;;;;;;;0.20;0.20;;;5.20;99.90;;;;;;5013843;28;20083;-73
2023/04/18 06:07:09;;;;;;;0.10;0.10;;;5.40;99.90;;;;;;4995840;28;20045;-73
2023/04/18 06:09:34;;;;;;;0.20;0.20;;;5.50;99.90;;;;;;4996110;28;20391;-73
2023/04/18 06:12:00;;;;;;;0.20;0.20;;;5.80;99.90;;;;;;4995760;28;20036;-73
2023/04/18 06:14:26;;;;;;;0.15;0.15;;;5.90;99.90;;;;;;5013483;28;20504;-73
2023/04/18 06:16:52;;;;;;;0.17;0.17;;;6.10;99.90;;;;;;5013154;28;20036;-73
2023/04/18 06:19:17;;;;;;;0.20;0.20;;;6.30;99.90;;;;;;5012844;28;20097;-74
2023/04/18 06:21:43;;;;;;;0.20;0.20;;;6.60;99.90;;;;;;5014187;28;20029;-73
2023/04/18 06:24:09;;;;;;;0.20;0.20;;;6.70;99.90;;;;;;5013299;28;20025;-73
2023/04/18 06:26:34;;;;;;;0.10;0.10;;;6.90;99.90;;;;;;5013065;28;20527;-73
2023/04/18 06:29:00;;;;;;;0.20;0.20;;;7.10;99.90;;;;;;5013493;28;20041;-74
2023/04/18 06:31:26;;;;;;;0.25;0.25;;;7.30;99.90;;;;;;5013231;28;20368;-74
2023/04/18 06:33:52;;;;;;;0.20;0.20;;;7.50;99.90;;;;;;5013198;28;20026;-73
2023/04/18 06:36:18;;;;;;;0.20;0.20;;;7.70;99.90;;;;;;5012952;28;20026;-73
2023/04/18 06:38:43;;;;;;;0.20;0.20;;;8.00;99.90;;;;;;4994297;28;20076;-74
2023/04/18 06:41:09;;;;;;;0.20;0.20;;;8.10;99.90;;;;;;4995902;28;20025;-74
2023/04/18 06:43:35;;;;;;;0.17;0.17;;;8.30;99.90;;;;;;5013090;28;20018;-74
2023/04/18 06:46:01;;;;;;;0.10;0.10;;;8.40;99.90;;;;;;4994709;28;20406;-74
2023/04/18 06:48:27;;;;;;;0.20;0.20;;;8.50;99.90;;;;;;5013119;28;20040;-74
2023/04/18 06:50:55;;;;;;;0.20;0.20;;;8.60;99.90;;;;;;5013215;28;20100;-74
2023/04/18 06:53:21;;;;;;;0.10;0.10;;;8.70;99.90;;;;;;5013243;28;20038;-74
2023/04/18 06:55:47;;;;;;;0.10;0.10;;;8.80;99.90;;;;;;5012982;28;20034;-74
2023/04/18 06:58:14;;;;;;;0.20;0.20;;;8.90;99.90;;;;;;5013045;28;20029;-74
2023/04/18 07:00:41;;;;;;;0.30;0.30;;;8.90;99.90;;;;;;5012822;28;20077;-74
2023/04/18 07:03:11;;;;;;;0.20;0.20;;;9.00;99.90;;;;;;5013389;28;20046;-75
2023/04/18 07:05:38;;;;;;;0.10;0.10;;;9.20;99.90;;;;;;4994866;28;20033;-75
2023/04/18 07:08:03;;;;;;;0.20;0.20;;;9.40;99.90;;;;;;4995577;28;20026;-75
2023/04/18 07:10:29;;;;;;;0.20;0.20;;;9.50;99.90;;;;;;5013194;28;20399;-74
2023/04/18 07:12:55;;;;;;;0.13;0.13;;;9.60;99.90;;;;;;5012874;28;20041;-75
2023/04/18 07:15:21;;;;;;;0.10;0.10;;;9.60;99.90;;;;;;4994604;28;20088;-74
2023/04/18 07:17:46;;;;;;;0.10;0.10;;;9.50;99.90;;;;;;4995625;28;20030;-75
2023/04/18 07:20:12;;;;;;;0.20;0.20;;;9.50;99.90;;;;;;4995106;28;20062;-75
2023/04/18 07:22:37;;;;;;;0.20;0.20;;;9.70;99.90;;;;;;5012327;28;20018;-74
2023/04/18 07:25:23;;;;;;;0.20;0.20;;;9.80;99.90;;;;;;5009744;23;20407;-75
2023/04/18 07:27:58;;;;;;;0.20;0.20;;;9.80;99.90;;;;;;4972658;28;20027;-75
2023/04/18 07:30:34;;;;;;;0.20;0.20;;;10.00;99.90;;;;;;4974268;28;20019;-75
2023/04/18 07:33:00;;;;;;;0.15;0.15;;;10.10;99.90;;;;;;4974010;28;20070;-75
2023/04/18 07:35:25;;;;;;;0.20;0.20;;;10.10;99.90;;;;;;4973519;28;20054;-75
2023/04/18 07:37:52;;;;;;;0.20;0.20;;;10.30;99.90;;;;;;4973936;28;20019;-75
2023/04/18 07:40:18;;;;;;;0.20;0.20;;;10.50;99.90;;;;;;4973859;28;20015;-75
2023/04/18 07:42:43;;;;;;;0.20;0.20;;;10.60;99.90;;;;;;4973743;28;20021;-75
2023/04/18 07:45:09;;;;;;;0.10;0.10;;;10.90;99.90;;;;;;4975541;28;20035;-75
2023/04/18 07:47:35;;;;;;;0.10;0.10;;;11.00;99.90;;;;;;4977505;28;20035;-76
2023/04/18 07:50:01;;;;;;;0.10;0.10;;;11.00;99.90;;;;;;4977276;28;20027;-76
2023/04/18 07:52:27;;;;;;;0.20;0.20;;;11.00;99.90;;;;;;4977044;28;20030;-76
2023/04/18 07:54:52;;;;;;;0.20;0.20;;;11.10;99.90;;;;;;4976566;28;20023;-76
2023/04/18 07:57:18;;;;;;;0.30;0.30;;;11.10;99.90;;;;;;4976025;28;20027;-76
2023/04/18 07:59:43;;;;;;;0.20;0.20;;;11.00;99.90;;;;;;4977035;28;20027;-76
2023/04/18 08:02:09;;;;;;;0.20;0.20;;;11.00;99.90;;;;;;4977436;28;20031;-76
2023/04/18 08:04:34;;;;;;;0.20;0.20;;;11.20;99.90;;;;;;4977115;28;20115;-76
2023/04/18 08:07:00;;;;;;;0.20;0.20;;;11.40;99.90;;;;;;4976375;28;20023;-75
2023/04/18 08:09:25;;;;;;;0.10;0.10;;;11.50;99.90;;;;;;4977017;28;20035;-75
2023/04/18 08:11:53;;;;;;;0.10;0.10;;;11.60;99.90;;;;;;4976988;28;20046;-75
2023/04/18 08:14:19;;;;;;;0.20;0.20;;;11.70;99.90;;;;;;4985473;23;20030;-76
2023/04/18 08:16:44;;;;;;;0.20;0.20;;;11.70;99.90;;;;;;5032788;28;20057;-76
2023/04/18 08:19:10;;;;;;;0.20;0.20;;;11.80;99.90;;;;;;5035238;28;20021;-75
2023/04/18 08:21:36;;;;;;;0.20;0.20;;;12.10;99.90;;;;;;5035344;28;20079;-75
2023/04/18 08:24:01;;;;;;;0.20;0.20;;;12.30;99.90;;;;;;5035632;28;20029;-76
2023/04/18 08:26:27;;;;;;;0.20;0.20;;;12.50;99.90;;;;;;5035517;28;20044;-76
2023/04/18 08:28:52;;;;;;;0.20;0.20;;;12.80;99.90;;;;;;5034841;28;20542;-76
2023/04/18 08:31:18;;;;;;;0.20;0.20;;;12.90;99.90;;;;;;5034820;28;20025;-77
2023/04/18 08:33:43;;;;;;;0.10;0.10;;;13.00;99.90;;;;;;5035351;28;20044;-77
2023/04/18 08:36:11;;;;;;;0.20;0.20;;;13.20;99.90;;;;;;5069726;23;20059;-76
2023/04/18 08:38:37;;;;;;;0.20;0.20;;;13.20;99.90;;;;;;5037306;28;20020;-76
2023/04/18 08:41:02;;;;;;;0.13;0.13;;;13.30;99.90;;;;;;5054690;28;20408;-76
2023/04/18 08:43:30;;;;;;;0.20;0.20;;;13.60;99.90;;;;;;5055018;28;20025;-76
2023/04/18 08:45:58;;;;;;;0.20;0.20;;;13.40;99.90;;;;;;5054768;28;20099;-77
2023/04/18 08:48:26;;;;;;;0.20;0.20;;;13.40;99.90;;;;;;5054602;28;20025;-77
2023/04/18 08:50:56;;;;;;;0.17;0.17;;;13.50;99.90;;;;;;5054351;28;20028;-76
2023/04/18 08:53:21;;;;;;;0.20;0.20;;;13.60;99.90;;;;;;5037067;28;20025;-76
2023/04/18 08:55:51;;;;;;;0.13;0.13;;;13.80;99.90;;;;;;5036348;28;20031;-76
2023/04/18 08:58:21;;;;;;;0.20;0.20;;;14.10;99.90;;;;;;5055060;28;20017;-77
2023/04/18 09:00:53;;;;;;;0.10;0.10;;;14.40;99.90;;;;;;5055861;28;20029;-76
2023/04/18 09:03:38;;;;;;;0.10;0.10;;;14.60;99.90;;;;;;5054600;28;20086;-76
2023/04/18 09:06:08;;;;;;;0.20;0.20;;;14.50;99.90;;;;;;5056011;28;20048;-78
2023/04/18 09:08:34;;;;;;;0.10;0.10;;;14.30;99.90;;;;;;5039308;28;20056;-77
2023/04/18 09:11:28;;;;;;;0.15;0.15;;;14.10;99.90;;;;;;5059344;28;20032;-77
2023/04/18 09:13:57;;;;;;;;;;;14.10;99.90;;;;;;5062905;28;20021;-77
2023/04/18 09:16:23;;;;;;;0.20;0.20;;;14.20;99.90;;;;;;5055397;28;19916;-77
2023/04/18 09:19:09;;;;;;;0.13;0.13;;;14.30;99.90;;;;;;5036202;28;20029;-76
2023/04/18 09:21:41;;;;;;;0.20;0.20;;;14.60;99.90;;;;;;5036644;28;20023;-76
2023/04/18 09:24:17;;;;;;;0.10;0.10;;;14.70;99.90;;;;;;5054614;28;20032;-76
2023/04/18 09:26:42;;;;;;;0.10;0.10;;;14.80;99.90;;;;;;5002212;23;20432;-76
2023/04/18 09:29:08;;;;;;;0.10;0.10;;;14.80;99.90;;;;;;4995893;28;20015;-77
2023/04/18 09:31:34;;;;;;;0.20;0.20;;;14.90;99.90;;;;;;4995265;28;20018;-76
2023/04/18 09:34:01;;;;;;;0.15;0.15;;;15.10;99.90;;;;;;4995678;28;20018;-77
2023/04/18 09:36:27;;;;;;;0.17;0.17;;;15.10;99.90;;;;;;5014833;28;20038;-76
2023/04/18 09:38:53;;;;;;;0.20;0.20;;;15.20;99.90;;;;;;5018580;28;20466;-77
2023/04/18 09:41:19;;;;;;;0.10;0.10;;;15.10;99.90;;;;;;5015478;28;20029;-77
2023/04/18 09:43:45;;;;;;;0.20;0.20;;;15.30;99.90;;;;;;5013595;28;20014;-77
2023/04/18 09:46:12;;;;;;;0.20;0.20;;;15.60;99.90;;;;;;5015171;28;20501;-77
2023/04/18 09:48:39;;;;;;;0.10;0.10;;;15.80;99.90;;;;;;5016462;28;20084;-77
2023/04/18 09:51:08;;;;;;;0.10;0.10;;;15.90;99.90;;;;;;5019949;28;20380;-78
2023/04/18 09:53:39;;;;;;;0.10;0.10;;;16.10;99.90;;;;;;5014869;28;20018;-77
2023/04/18 09:56:14;;;;;;;0.15;0.15;;;16.30;99.90;;;;;;5013992;28;20029;-76
2023/04/18 09:58:41;;;;;;;0.10;0.10;;;16.20;99.90;;;;;;5015572;28;20105;-77
2023/04/18 10:01:06;;;;;;;0.10;0.10;;;16.30;99.90;;;;;;5014745;28;20491;-76
2023/04/18 10:03:36;;;;;;;0.20;0.20;;;16.40;99.90;;;;;;5015636;28;20037;-76
2023/04/18 10:06:03;;;;;;;0.10;0.10;;;16.20;99.90;;;;;;5013487;28;20052;-77
2023/04/18 10:08:28;;;;;;;0.10;0.10;;;16.30;99.90;;;;;;5013059;28;20037;-76
2023/04/18 10:10:56;;;;;;;0.10;0.10;;;16.30;99.90;;;;;;5013652;28;20018;-76
2023/04/18 10:13:23;;;;;;;0.20;0.20;;;16.40;99.90;;;;;;5013292;28;20021;-75
2023/04/18 10:15:51;;;;;;;0.15;0.15;;;16.50;99.90;;;;;;5013600;28;20064;-76
2023/04/18 10:18:22;;;;;;;0.10;0.10;;;16.60;99.90;;;;;;5013654;28;20614;-75
2023/04/18 10:20:47;;;;;;;0.10;0.10;;;16.80;99.90;;;;;;5013474;28;20030;-76
2023/04/18 10:23:34;;;;;;;0.10;0.10;;;16.60;99.90;;;;;;5012832;28;20029;-76
2023/04/18 10:26:01;;;;;;;0.20;0.20;;;16.50;99.90;;;;;;5013813;28;20402;-77
2023/04/18 10:28:59;;;;;;;0.10;0.10;;;16.50;99.90;;;;;;5014772;28;20136;-77
2023/04/18 10:31:26;;;;;;;0.10;0.10;;;16.50;99.90;;;;;;5012589;28;20025;-77
2023/04/18 10:33:54;;;;;;;0.10;0.10;;;16.80;99.90;;;;;;5014020;28;20038;-77
2023/04/18 10:36:20;;;;;;;0.20;0.20;;;16.90;99.90;;;;;;5020534;23;20049;-76
2023/04/18 10:38:51;;;;;;;0.20;0.20;;;17.00;99.90;;;;;;5013955;28;20097;-77
2023/04/18 10:41:21;;;;;;;0.20;0.20;;;17.00;99.90;;;;;;5014039;28;20030;-76
2023/04/18 10:44:08;;;;;;;0.10;0.10;;;16.90;99.90;;;;;;5013316;28;20563;-76
2023/04/18 10:46:46;;;;;;;0.10;0.10;;;16.60;99.90;;;;;;5032589;28;20029;-76
2023/04/18 10:49:17;;;;;;;0.20;0.20;;;16.50;99.90;;;;;;5032709;28;20083;-77
2023/04/18 10:51:48;;;;;;;0.20;0.20;;;16.60;99.90;;;;;;5033059;28;20025;-75
2023/04/18 10:54:39;;;;;;;0.20;0.20;;;17.00;99.90;;;;;;5033034;28;20026;-76
2023/04/18 10:57:07;;;;;;;0.10;0.10;;;16.90;99.90;;;;;;5032181;28;20579;-76
2023/04/18 10:59:37;;;;;;;0.10;0.10;;;16.40;99.90;;;;;;5033061;28;20101;-76
2023/04/18 11:02:24;;;;;;;0.20;0.20;;;16.60;99.90;;;;;;5033180;28;20022;-77
2023/04/18 11:04:53;;;;;;;0.20;0.20;;;16.70;99.90;;;;;;5033204;28;20045;-76
2023/04/18 11:07:36;;;;;;;0.10;0.10;;;16.70;99.90;;;;;;5031804;28;20033;-76
2023/04/18 11:10:02;;;;;;;0.20;0.20;;;16.50;99.90;;;;;;5033113;28;20026;-77
2023/04/18 11:12:52;;;;;;;0.20;0.20;;;16.60;99.90;;;;;;5032231;28;20030;-75
2023/04/18 11:15:28;;;;;;;0.20;0.20;;;16.90;99.90;;;;;;5047639;23;20431;-75
2023/04/18 11:18:07;;;;;;;0.10;0.10;;;17.10;99.90;;;;;;5033842;28;20029;-76
2023/04/18 11:20:52;;;;;;;0.10;0.10;;;17.50;99.90;;;;;;5036521;28;20025;-77
2023/04/18 11:23:24;;;;;;;0.10;0.10;;;17.20;99.90;;;;;;5019092;28;20376;-76
2023/04/18 11:25:55;;;;;;;0.10;0.10;;;17.20;99.90;;;;;;5049676;28;20398;-75
2023/04/18 11:28:23;;;;;;;0.10;0.10;;;17.20;99.90;;;;;;5056971;28;20021;-76
2023/04/18 11:30:51;;;;;;;0.20;0.20;;;17.40;99.90;;;;;;5038847;28;20025;-76
2023/04/18 11:33:16;;;;;;;0.17;0.17;;;17.70;99.90;;;;;;5056964;28;20063;-75
2023/04/18 11:35:45;;;;;;;0.10;0.10;;;18.10;99.90;;;;;;5056818;28;20033;-77
2023/04/18 11:38:13;;;;;;;0.10;0.10;;;18.40;99.90;;;;;;5056520;28;20096;-75
2023/04/18 11:40:47;;;;;;;0.20;0.20;;;18.40;99.90;;;;;;5038434;28;20025;-76
2023/04/18 11:43:19;;;;;;;0.10;0.10;;;18.50;99.90;;;;;;5056372;28;20108;-75
2023/04/18 11:45:56;;;;;;;0.15;0.15;;;18.30;99.90;;;;;;5039844;23;20034;-76
2023/04/18 11:48:22;;;;;;;0.10;0.10;;;18.40;99.90;;;;;;4998610;28;20526;-75
2023/04/18 11:50:47;;;;;;;0.10;0.10;;;18.30;99.90;;;;;;4999540;28;20042;-76
2023/04/18 11:53:13;;;;;;;0.10;0.10;;;18.70;99.90;;;;;;5016197;28;20018;-78
2023/04/18 11:55:39;;;;;;;0.10;0.10;;;18.90;99.90;;;;;;5027823;28;20103;-76
2023/04/18 11:58:05;;;;;;;0.10;0.10;;;19.20;99.90;;;;;;5036528;28;20382;-76
2023/04/18 12:00:38;;;;;;;0.10;0.10;;;19.20;99.90;;;;;;5035947;28;20025;-77
2023/04/18 12:03:06;;;;;;;0.10;0.10;;;19.30;99.90;;;;;;5019299;28;20021;-77
2023/04/18 12:05:36;;;;;;;0.17;0.17;;;19.80;99.90;;;;;;5049977;23;20042;-77
2023/04/18 12:08:19;;;;;;;0.10;0.10;;;20.00;99.90;;;;;;5018409;28;20024;-77
2023/04/18 12:10:49;;;;;;;0.10;0.10;;;20.00;99.90;;;;;;5036261;28;20462;-77
2023/04/18 12:13:16;;;;;;;0.10;0.10;;;20.00;99.90;;;;;;5036252;28;20101;-76
2023/04/18 12:15:43;;;;;;;0.10;0.10;;;20.10;99.90;;;;;;5048004;28;20025;-76
2023/04/18 12:18:15;;;;;;;0.10;0.10;;;20.00;99.90;;;;;;5056040;28;20060;-76
2023/04/18 12:20:52;;;;;;;0.10;0.10;;;20.40;99.90;;;;;;5037910;28;20139;-77
2023/04/18 12:23:41;;;;;;;0.10;0.10;;;20.30;99.90;;;;;;5037995;28;20024;-76
2023/04/18 12:26:27;;;;;;;0.05;0.05;;;20.40;99.90;;;;;;5112788;23;20048;-76
2023/04/18 12:28:57;;;;;;;0.10;0.10;;;20.20;99.90;;;;;;5035953;28;20029;-76
2023/04/18 12:31:22;;;;;;;0.10;0.10;;;20.10;99.90;;;;;;5035429;28;20060;-76
2023/04/18 12:33:49;;;;;;;0.10;0.10;;;20.60;99.90;;;;;;5035864;28;20061;-77
2023/04/18 12:36:15;;;;;;;0.10;0.10;;;20.80;99.90;;;;;;5017640;28;20570;-77
2023/04/18 12:38:40;;;;;;;0.10;0.10;;;20.50;99.30;;;;;;5035709;28;20101;-76
2023/04/18 12:41:06;;;;;;;0.10;0.10;;;20.60;99.90;;;;;;5035539;28;20384;-78
2023/04/18 12:43:31;;;;;;;0.10;0.10;;;20.80;99.90;;;;;;5017246;28;20030;-76
2023/04/18 12:45:58;;;;;;;0.10;0.10;;;20.80;99.90;;;;;;5035395;28;20036;-76
2023/04/18 12:48:23;;;;;;;0.05;0.05;;;20.30;99.90;;;;;;5035530;28;20458;-76
2023/04/18 12:50:49;;;;;;;0.13;0.13;;;19.30;99.90;;;;;;5035164;28;20057;-76
2023/04/18 12:53:14;;;;;;;0.10;0.10;;;19.10;99.90;;;;;;5017734;28;20128;-76
2023/04/18 12:55:40;;;;;;;0.10;0.10;;;19.60;99.90;;;;;;5041152;23;20049;-76
2023/04/18 12:58:05;;;;;;;0.00;0.00;;;19.80;99.90;;;;;;5035330;28;20383;-76